sensor_id;sensor_type;location;lat;lon;timestamp;pressure;altitude;pressure_sealevel;temperature;humidity
71057;BME280;58380;48.312;9.246;2023-06-19T05:58:25;93580.50;;;16.97;100.00
71057;BME280;58380;48.312;9.246;2023-06-19T06:00:51;93585.19;;;17.14;100.00
71057;BME280;58380;48.312;9.246;2023-06-19T06:03:25;93583.69;;;17.22;100.00
71057;BME280;58380;48.312;9.246;2023-06-19T06:05:51;93571.34;;;17.26;100.00
71057;BME280;58380;48.312;9.246;2023-06-19T06:08:16;93567.69;;;17.36;100.00
71057;BME280;58380;48.312;9.246;2023-06-19T06:10:42;93593.38;;;17.68;100.00
71057;BME280;58380;48.312;9.246;2023-06-19T06:13:08;93584.84;;;17.80;95.59
71057;BME280;58380;48.312;9.246;2023-06-19T06:15:33;93593.50;;;18.08;91.94
71057;BME280;58380;48.312;9.246;2023-06-19T06:17:58;93589.22;;;18.29;86.65
71057;BME280;58380;48.312;9.246;2023-06-19T06:20:24;93584.78;;;18.47;87.11
71057;BME280;58380;48.312;9.246;2023-06-19T06:22:49;93586.06;;;18.59;84.74
71057;BME280;58380;48.312;9.246;2023-06-19T06:25:15;93578.22;;;18.62;84.83
71057;BME280;58380;48.312;9.246;2023-06-19T06:27:41;93590.78;;;18.62;82.73
71057;BME280;58380;48.312;9.246;2023-06-19T06:30:07;93580.56;;;18.64;84.20
71057;BME280;58380;48.312;9.246;2023-06-19T06:32:33;93585.91;;;18.64;84.60
71057;BME280;58380;48.312;9.246;2023-06-19T06:34:59;93588.31;;;18.65;83.79
71057;BME280;58380;48.312;9.246;2023-06-19T06:37:24;93597.09;;;18.66;83.48
71057;BME280;58380;48.312;9.246;2023-06-19T06:39:50;93595.69;;;18.68;84.39
71057;BME280;58380;48.312;9.246;2023-06-19T06:42:16;93585.13;;;18.63;82.11
71057;BME280;58380;48.312;9.246;2023-06-19T06:44:42;93600.41;;;18.71;81.34
71057;BME280;58380;48.312;9.246;2023-06-19T06:47:08;93606.88;;;18.70;83.35
71057;BME280;58380;48.312;9.246;2023-06-19T06:49:33;93602.88;;;18.59;82.89
71057;BME280;58380;48.312;9.246;2023-06-19T06:52:02;93611.88;;;18.63;82.42
71057;BME280;58380;48.312;9.246;2023-06-19T06:54:31;93606.31;;;18.51;81.51
71057;BME280;58380;48.312;9.246;2023-06-19T06:56:56;93617.63;;;18.48;82.27
71057;BME280;58380;48.312;9.246;2023-06-19T06:59:24;93582.22;;;18.11;80.84
71057;BME280;58380;48.312;9.246;2023-06-19T07:01:50;93619.94;;;18.41;83.54
71057;BME280;58380;48.312;9.246;2023-06-19T07:04:16;93628.13;;;18.44;81.97
71057;BME280;58380;48.312;9.246;2023-06-19T07:06:41;93613.81;;;18.40;82.36
71057;BME280;58380;48.312;9.246;2023-06-19T07:09:07;93635.28;;;18.58;83.00
71057;BME280;58380;48.312;9.246;2023-06-19T07:11:32;93618.41;;;18.48;81.85
71057;BME280;58380;48.312;9.246;2023-06-19T07:13:58;93623.13;;;18.51;81.08
71057;BME280;58380;48.312;9.246;2023-06-19T07:16:23;93641.94;;;18.69;81.55
71057;BME280;58380;48.312;9.246;2023-06-19T07:18:49;93626.66;;;18.69;81.19
71057;BME280;58380;48.312;9.246;2023-06-19T07:21:14;93631.19;;;18.83;80.77
71057;BME280;58380;48.312;9.246;2023-06-19T07:23:41;93634.84;;;18.95;80.91
71057;BME280;58380;48.312;9.246;2023-06-19T07:26:09;93608.06;;;18.87;80.80
71057;BME280;58380;48.312;9.246;2023-06-19T07:28:34;93622.88;;;19.02;80.91
71057;BME280;58380;48.312;9.246;2023-06-19T07:31:04;93635.38;;;19.24;78.71
71057;BME280;58380;48.312;9.246;2023-06-19T07:33:29;93616.78;;;19.10;78.99
71057;BME280;58380;48.312;9.246;2023-06-19T07:35:55;93639.97;;;19.23;76.77
71057;BME280;58380;48.312;9.246;2023-06-19T07:38:21;93616.06;;;19.35;77.15
71057;BME280;58380;48.312;9.246;2023-06-19T07:40:46;93635.19;;;19.77;75.50
71057;BME280;58380;48.312;9.246;2023-06-19T07:43:12;93629.34;;;20.01;75.35
71057;BME280;58380;48.312;9.246;2023-06-19T07:45:37;93612.94;;;20.20;74.48
71057;BME280;58380;48.312;9.246;2023-06-19T07:48:02;93628.66;;;20.57;71.87
71057;BME280;58380;48.312;9.246;2023-06-19T07:52:53;93634.88;;;20.87;69.31
71057;BME280;58380;48.312;9.246;2023-06-19T07:55:18;93577.22;;;20.46;69.95
71057;BME280;58380;48.312;9.246;2023-06-19T07:57:44;93625.75;;;20.79;70.82
71057;BME280;58380;48.312;9.246;2023-06-19T08:00:10;93613.31;;;20.66;71.84
71057;BME280;58380;48.312;9.246;2023-06-19T08:02:39;93630.53;;;20.56;71.03
71057;BME280;58380;48.312;9.246;2023-06-19T08:05:10;93622.50;;;20.39;70.97
71057;BME280;58380;48.312;9.246;2023-06-19T08:07:36;93625.66;;;20.58;72.02
71057;BME280;58380;48.312;9.246;2023-06-19T08:10:02;93625.56;;;20.84;71.02
71057;BME280;58380;48.312;9.246;2023-06-19T08:12:29;93625.72;;;21.18;68.78
71057;BME280;58380;48.312;9.246;2023-06-19T08:14:55;93622.59;;;21.37;68.82
71057;BME280;58380;48.312;9.246;2023-06-19T08:17:20;93613.81;;;21.57;68.66
71057;BME280;58380;48.312;9.246;2023-06-19T08:19:45;93619.72;;;21.92;68.19
71057;BME280;58380;48.312;9.246;2023-06-19T08:22:10;93614.53;;;22.08;65.99
71057;BME280;58380;48.312;9.246;2023-06-19T08:24:36;93601.94;;;22.00;66.35
71057;BME280;58380;48.312;9.246;2023-06-19T08:27:04;93607.84;;;21.93;65.86
71057;BME280;58380;48.312;9.246;2023-06-19T08:29:29;93608.31;;;21.95;66.90
71057;BME280;58380;48.312;9.246;2023-06-19T08:31:55;93604.69;;;22.12;65.57
71057;BME280;58380;48.312;9.246;2023-06-19T08:34:20;93606.53;;;22.21;65.70
71057;BME280;58380;48.312;9.246;2023-06-19T08:36:45;93560.84;;;22.00;65.31
71057;BME280;58380;48.312;9.246;2023-06-19T08:39:11;93603.22;;;22.36;66.07
71057;BME280;58380;48.312;9.246;2023-06-19T08:41:37;93601.56;;;22.44;64.73
71057;BME280;58380;48.312;9.246;2023-06-19T08:44:04;93589.47;;;22.50;62.49
71057;BME280;58380;48.312;9.246;2023-06-19T08:46:30;93564.31;;;22.33;60.96
71057;BME280;58380;48.312;9.246;2023-06-19T08:48:55;93599.88;;;22.51;61.78
71057;BME280;58380;48.312;9.246;2023-06-19T08:51:21;93588.34;;;22.51;60.84
71057;BME280;58380;48.312;9.246;2023-06-19T08:53:48;93592.88;;;22.59;60.54
71057;BME280;58380;48.312;9.246;2023-06-19T08:56:19;93590.59;;;22.61;60.11
71057;BME280;58380;48.312;9.246;2023-06-19T08:58:44;93589.84;;;22.73;60.64
71057;BME280;58380;48.312;9.246;2023-06-19T09:01:09;93581.31;;;22.83;59.90
71057;BME280;58380;48.312;9.246;2023-06-19T09:03:35;93581.81;;;22.97;57.96
71057;BME280;58380;48.312;9.246;2023-06-19T09:06:06;93571.97;;;23.01;56.50
71057;BME280;58380;48.312;9.246;2023-06-19T09:08:32;93558.25;;;22.94;56.51
71057;BME280;58380;48.312;9.246;2023-06-19T09:10:58;93582.91;;;23.09;57.24
71057;BME280;58380;48.312;9.246;2023-06-19T09:13:25;93579.44;;;23.08;55.17
71057;BME280;58380;48.312;9.246;2023-06-19T09:15:57;93587.06;;;23.06;55.00
71057;BME280;58380;48.312;9.246;2023-06-19T09:18:30;93550.25;;;22.86;56.33
71057;BME280;58380;48.312;9.246;2023-06-19T09:20:56;93565.34;;;22.99;54.87
71057;BME280;58380;48.312;9.246;2023-06-19T09:23:23;93574.75;;;23.17;48.74
71057;BME280;58380;48.312;9.246;2023-06-19T09:25:51;93583.50;;;23.14;49.63
71057;BME280;58380;48.312;9.246;2023-06-19T09:28:25;93584.72;;;23.17;50.38
71057;BME280;58380;48.312;9.246;2023-06-19T09:33:22;93563.75;;;23.75;50.13
71057;BME280;58380;48.312;9.246;2023-06-19T09:35:49;93551.06;;;23.76;45.75
71057;BME280;58380;48.312;9.246;2023-06-19T09:38:17;93569.97;;;24.04;46.38
71057;BME280;58380;48.312;9.246;2023-06-19T09:40:47;93581.66;;;24.24;46.02
71057;BME280;58380;48.312;9.246;2023-06-19T09:43:19;93570.72;;;24.32;46.75
71057;BME280;58380;48.312;9.246;2023-06-19T09:45:48;93571.19;;;24.50;46.80
71057;BME280;58380;48.312;9.246;2023-06-19T09:48:24;93580.19;;;24.70;46.75
71057;BME280;58380;48.312;9.246;2023-06-19T09:50:55;93573.06;;;24.94;47.78
71057;BME280;58380;48.312;9.246;2023-06-19T09:53:26;93568.78;;;25.09;47.09
71057;BME280;58380;48.312;9.246;2023-06-19T09:55:52;93582.00;;;25.14;44.88
71057;BME280;58380;48.312;9.246;2023-06-19T09:58:20;93564.34;;;25.16;44.69
71057;BME280;58380;48.312;9.246;2023-06-19T10:00:46;93571.75;;;25.04;45.73
71057;BME280;58380;48.312;9.246;2023-06-19T10:03:13;93577.06;;;24.84;45.14
71057;BME280;58380;48.312;9.246;2023-06-19T10:05:39;93582.19;;;24.58;45.42
71057;BME280;58380;48.312;9.246;2023-06-19T10:08:06;93580.22;;;24.42;45.44
71057;BME280;58380;48.312;9.246;2023-06-19T10:10:33;93592.09;;;24.53;46.27
71057;BME280;58380;48.312;9.246;2023-06-19T10:13:00;93551.31;;;24.43;45.83
71057;BME280;58380;48.312;9.246;2023-06-19T10:15:41;93582.72;;;24.79;46.00
71057;BME280;58380;48.312;9.246;2023-06-19T10:18:13;93576.16;;;24.96;45.02
71057;BME280;58380;48.312;9.246;2023-06-19T10:20:41;93580.88;;;25.15;44.90
71057;BME280;58380;48.312;9.246;2023-06-19T10:25:44;93554.78;;;25.38;43.91
71057;BME280;58380;48.312;9.246;2023-06-19T10:28:25;93558.38;;;25.62;43.18
71057;BME280;58380;48.312;9.246;2023-06-19T10:30:59;93568.84;;;25.64;43.14
71057;BME280;58380;48.312;9.246;2023-06-19T10:33:31;93528.00;;;25.14;44.45
71057;BME280;58380;48.312;9.246;2023-06-19T10:36:13;93545.78;;;25.50;45.11
71057;BME280;58380;48.312;9.246;2023-06-19T10:38:44;93552.19;;;25.61;43.70
71057;BME280;58380;48.312;9.246;2023-06-19T10:41:20;93560.31;;;25.61;43.54
71057;BME280;58380;48.312;9.246;2023-06-19T10:43:58;93559.59;;;25.65;42.92
71057;BME280;58380;48.312;9.246;2023-06-19T10:46:34;93548.44;;;25.66;44.18
71057;BME280;58380;48.312;9.246;2023-06-19T10:49:01;93552.22;;;25.81;45.50
71057;BME280;58380;48.312;9.246;2023-06-19T10:51:36;93531.88;;;25.87;45.11
71057;BME280;58380;48.312;9.246;2023-06-19T10:54:03;93553.28;;;25.96;44.52
71057;BME280;58380;48.312;9.246;2023-06-19T10:56:29;93536.22;;;25.92;45.55
71057;BME280;58380;48.312;9.246;2023-06-19T10:58:59;93546.03;;;26.19;45.47
71057;BME280;58380;48.312;9.246;2023-06-19T11:01:34;93533.41;;;26.27;44.59
71057;BME280;58380;48.312;9.246;2023-06-19T11:04:11;93555.84;;;26.51;44.01
71057;BME280;58380;48.312;9.246;2023-06-19T11:06:38;93547.88;;;26.58;42.18
71057;BME280;58380;48.312;9.246;2023-06-19T11:09:09;93520.84;;;26.38;41.44
71057;BME280;58380;48.312;9.246;2023-06-19T11:11:36;93531.59;;;26.54;41.35
71057;BME280;58380;48.312;9.246;2023-06-19T11:14:02;93528.28;;;26.22;41.51
71057;BME280;58380;48.312;9.246;2023-06-19T11:16:29;93533.50;;;26.11;41.29
71057;BME280;58380;48.312;9.246;2023-06-19T11:18:57;93515.19;;;25.66;42.29
71057;BME280;58380;48.312;9.246;2023-06-19T11:21:33;93525.75;;;25.90;43.62
71057;BME280;58380;48.312;9.246;2023-06-19T11:24:05;93515.72;;;25.91;41.88
71057;BME280;58380;48.312;9.246;2023-06-19T11:26:44;93513.81;;;25.91;42.90
71057;BME280;58380;48.312;9.246;2023-06-19T11:29:25;93524.19;;;26.09;42.21
71057;BME280;58380;48.312;9.246;2023-06-19T11:32:04;93527.19;;;26.03;41.79
71057;BME280;58380;48.312;9.246;2023-06-19T11:34:40;93524.38;;;26.19;42.20
71057;BME280;58380;48.312;9.246;2023-06-19T11:37:13;93531.78;;;26.45;43.63
71057;BME280;58380;48.312;9.246;2023-06-19T11:39:47;93523.34;;;26.70;40.59
71057;BME280;58380;48.312;9.246;2023-06-19T11:42:14;93528.34;;;26.68;43.47
71057;BME280;58380;48.312;9.246;2023-06-19T11:45:02;93491.91;;;26.62;42.64
71057;BME280;58380;48.312;9.246;2023-06-19T11:47:31;93517.56;;;26.72;42.75
71057;BME280;58380;48.312;9.246;2023-06-19T11:49:57;93509.94;;;26.54;42.43
71057;BME280;58380;48.312;9.246;2023-06-19T11:52:23;93499.19;;;26.38;42.78
71057;BME280;58380;48.312;9.246;2023-06-19T11:54:49;93498.66;;;26.29;43.82
71057;BME280;58380;48.312;9.246;2023-06-19T11:57:14;93471.66;;;26.10;43.67
71057;BME280;58380;48.312;9.246;2023-06-19T11:59:40;93442.31;;;26.12;43.20
71057;BME280;58380;48.312;9.246;2023-06-19T12:02:07;93477.69;;;26.68;43.81
71057;BME280;58380;48.312;9.246;2023-06-19T12:04:33;93500.34;;;27.10;41.85
71057;BME280;58380;48.312;9.246;2023-06-19T12:06:59;93501.81;;;27.30;40.37
71057;BME280;58380;48.312;9.246;2023-06-19T12:09:26;93492.50;;;27.28;40.48
71057;BME280;58380;48.312;9.246;2023-06-19T12:11:52;93478.31;;;27.11;39.69
71057;BME280;58380;48.312;9.246;2023-06-19T12:14:18;93507.03;;;26.89;40.41
71057;BME280;58380;48.312;9.246;2023-06-19T12:16:47;93499.63;;;26.40;40.92
71057;BME280;58380;48.312;9.246;2023-06-19T12:19:13;93497.81;;;26.48;42.09
71057;BME280;58380;48.312;9.246;2023-06-19T12:21:39;93472.97;;;26.65;41.92
71057;BME280;58380;48.312;9.246;2023-06-19T12:24:05;93481.38;;;27.10;42.31
71057;BME280;58380;48.312;9.246;2023-06-19T12:26:33;93479.28;;;27.23;39.79
71057;BME280;58380;48.312;9.246;2023-06-19T12:29:03;93444.41;;;26.95;39.64
71057;BME280;58380;48.312;9.246;2023-06-19T12:31:30;93487.28;;;26.89;39.55
71057;BME280;58380;48.312;9.246;2023-06-19T12:33:56;93486.16;;;26.67;40.55
71057;BME280;58380;48.312;9.246;2023-06-19T12:36:22;93481.75;;;26.82;39.85
71057;BME280;58380;48.312;9.246;2023-06-19T12:38:48;93467.88;;;26.83;40.19
71057;BME280;58380;48.312;9.246;2023-06-19T12:41:14;93483.13;;;27.22;41.80
71057;BME280;58380;48.312;9.246;2023-06-19T12:43:40;93483.44;;;27.43;40.24
71057;BME280;58380;48.312;9.246;2023-06-19T12:46:06;93428.78;;;27.11;38.71
71057;BME280;58380;48.312;9.246;2023-06-19T12:48:32;93474.34;;;27.28;39.56
71057;BME280;58380;48.312;9.246;2023-06-19T12:50:58;93475.41;;;26.97;39.73
71057;BME280;58380;48.312;9.246;2023-06-19T12:53:23;93474.75;;;26.81;39.82
71057;BME280;58380;48.312;9.246;2023-06-19T12:55:52;93430.28;;;26.55;40.14
71057;BME280;58380;48.312;9.246;2023-06-19T12:58:18;93464.09;;;26.92;40.63
71057;BME280;58380;48.312;9.246;2023-06-19T13:00:44;93453.75;;;27.24;41.18
71057;BME280;58380;48.312;9.246;2023-06-19T13:03:09;93476.84;;;27.78;40.57
71057;BME280;58380;48.312;9.246;2023-06-19T13:05:35;93473.72;;;28.06;40.24
71057;BME280;58380;48.312;9.246;2023-06-19T13:08:01;93467.13;;;28.07;38.80
71057;BME280;58380;48.312;9.246;2023-06-19T13:10:26;93454.81;;;28.13;40.89
71057;BME280;58380;48.312;9.246;2023-06-19T13:12:52;93445.31;;;27.96;40.46
71057;BME280;58380;48.312;9.246;2023-06-19T13:15:17;93459.38;;;28.06;40.25
71057;BME280;58380;48.312;9.246;2023-06-19T13:17:42;93452.94;;;27.84;41.05
71057;BME280;58380;48.312;9.246;2023-06-19T13:20:08;93458.72;;;27.48;39.96
71057;BME280;58380;48.312;9.246;2023-06-19T13:22:33;93455.91;;;27.41;39.78
71057;BME280;58380;48.312;9.246;2023-06-19T13:24:59;93456.63;;;27.38;40.74
71057;BME280;58380;48.312;9.246;2023-06-19T13:27:24;93443.66;;;27.54;40.89
71057;BME280;58380;48.312;9.246;2023-06-19T13:29:50;93444.84;;;27.53;39.64
71057;BME280;58380;48.312;9.246;2023-06-19T13:32:15;93438.06;;;27.40;39.09
71057;BME280;58380;48.312;9.246;2023-06-19T13:34:40;93447.78;;;27.41;39.17
71057;BME280;58380;48.312;9.246;2023-06-19T13:37:06;93453.03;;;27.30;39.74
71057;BME280;58380;48.312;9.246;2023-06-19T13:39:32;93438.25;;;27.54;40.72
71057;BME280;58380;48.312;9.246;2023-06-19T13:41:57;93421.69;;;27.97;39.31
71057;BME280;58380;48.312;9.246;2023-06-19T13:44:26;93428.13;;;28.23;37.26
71057;BME280;58380;48.312;9.246;2023-06-19T13:46:51;93406.19;;;27.98;37.37
71057;BME280;58380;48.312;9.246;2023-06-19T13:49:17;93424.94;;;27.76;38.54
71057;BME280;58380;48.312;9.246;2023-06-19T13:51:42;93427.78;;;27.87;39.05
71057;BME280;58380;48.312;9.246;2023-06-19T13:54:09;93367.56;;;27.06;39.60
71057;BME280;58380;48.312;9.246;2023-06-19T13:56:35;93417.22;;;27.44;39.53
71057;BME280;58380;48.312;9.246;2023-06-19T13:59:02;93394.25;;;27.35;38.50
71057;BME280;58380;48.312;9.246;2023-06-19T14:01:27;93414.63;;;27.55;38.55
71057;BME280;58380;48.312;9.246;2023-06-19T14:03:53;93393.06;;;27.66;38.47
71057;BME280;58380;48.312;9.246;2023-06-19T14:06:19;93415.81;;;27.91;38.25
71057;BME280;58380;48.312;9.246;2023-06-19T14:08:44;93419.00;;;28.01;37.72
71057;BME280;58380;48.312;9.246;2023-06-19T14:11:10;93398.16;;;27.71;38.06
71057;BME280;58380;48.312;9.246;2023-06-19T14:13:36;93402.84;;;27.78;38.56
71057;BME280;58380;48.312;9.246;2023-06-19T14:16:02;93393.44;;;27.68;38.69
71057;BME280;58380;48.312;9.246;2023-06-19T14:18:28;93395.97;;;27.84;39.28
71057;BME280;58380;48.312;9.246;2023-06-19T14:20:53;93401.13;;;27.96;40.11
71057;BME280;58380;48.312;9.246;2023-06-19T14:23:18;93375.13;;;27.91;40.80
71057;BME280;58380;48.312;9.246;2023-06-19T14:25:44;93394.22;;;28.47;39.39
71057;BME280;58380;48.312;9.246;2023-06-19T14:28:09;93373.03;;;28.70;37.99
71057;BME280;58380;48.312;9.246;2023-06-19T14:30:35;93390.69;;;29.01;38.68
71057;BME280;58380;48.312;9.246;2023-06-19T14:33:00;93385.53;;;28.82;38.31
71057;BME280;58380;48.312;9.246;2023-06-19T14:35:27;93405.25;;;28.72;37.22
71057;BME280;58380;48.312;9.246;2023-06-19T14:37:52;93375.66;;;28.08;37.85
71057;BME280;58380;48.312;9.246;2023-06-19T14:40:17;93382.94;;;27.63;38.61
71057;BME280;58380;48.312;9.246;2023-06-19T14:42:43;93396.81;;;27.58;40.79
71057;BME280;58380;48.312;9.246;2023-06-19T14:45:08;93386.53;;;27.37;40.27
71057;BME280;58380;48.312;9.246;2023-06-19T14:47:34;93371.13;;;27.14;41.28
71057;BME280;58380;48.312;9.246;2023-06-19T14:50:00;93393.91;;;27.09;41.31
71057;BME280;58380;48.312;9.246;2023-06-19T14:52:25;93385.97;;;26.94;41.35
71057;BME280;58380;48.312;9.246;2023-06-19T14:54:51;93355.50;;;26.47;41.09
71057;BME280;58380;48.312;9.246;2023-06-19T14:57:16;93410.81;;;26.73;42.91
71057;BME280;58380;48.312;9.246;2023-06-19T14:59:41;93389.50;;;26.44;42.03
71057;BME280;58380;48.312;9.246;2023-06-19T15:02:07;93396.63;;;26.30;45.60
71057;BME280;58380;48.312;9.246;2023-06-19T15:04:33;93377.69;;;26.07;44.35
71057;BME280;58380;48.312;9.246;2023-06-19T15:06:58;93409.13;;;25.92;46.46
71057;BME280;58380;48.312;9.246;2023-06-19T15:09:24;93419.03;;;25.65;52.91
71057;BME280;58380;48.312;9.246;2023-06-19T15:11:51;93410.38;;;25.16;57.61
71057;BME280;58380;48.312;9.246;2023-06-19T15:14:16;93406.44;;;24.59;61.65
71057;BME280;58380;48.312;9.246;2023-06-19T15:16:42;93411.22;;;24.18;65.38
71057;BME280;58380;48.312;9.246;2023-06-19T15:19:07;93410.84;;;23.88;65.88
71057;BME280;58380;48.312;9.246;2023-06-19T15:21:33;93424.13;;;23.37;66.91
71057;BME280;58380;48.312;9.246;2023-06-19T15:23:58;93414.13;;;22.97;65.17
71057;BME280;58380;48.312;9.246;2023-06-19T15:26:24;93420.97;;;22.94;70.65
71057;BME280;58380;48.312;9.246;2023-06-19T15:28:49;93425.94;;;22.68;70.42
71057;BME280;58380;48.312;9.246;2023-06-19T15:31:19;93462.16;;;22.58;68.37
71057;BME280;58380;48.312;9.246;2023-06-19T15:33:46;93475.38;;;22.51;69.99
71057;BME280;58380;48.312;9.246;2023-06-19T15:36:11;93452.78;;;22.18;70.10
71057;BME280;58380;48.312;9.246;2023-06-19T15:38:37;93479.44;;;22.11;66.79
71057;BME280;58380;48.312;9.246;2023-06-19T15:41:02;93487.47;;;21.87;69.80
71057;BME280;58380;48.312;9.246;2023-06-19T15:43:28;93513.09;;;21.84;70.66
71057;BME280;58380;48.312;9.246;2023-06-19T15:45:55;93513.81;;;21.39;69.88
71057;BME280;58380;48.312;9.246;2023-06-19T15:48:21;93506.16;;;21.20;72.88
71057;BME280;58380;48.312;9.246;2023-06-19T15:50:47;93497.84;;;21.34;71.73
71057;BME280;58380;48.312;9.246;2023-06-19T15:53:12;93473.41;;;21.69;74.67
71057;BME280;58380;48.312;9.246;2023-06-19T15:55:38;93402.38;;;21.91;73.49
71057;BME280;58380;48.312;9.246;2023-06-19T15:58:03;93423.47;;;22.50;71.07
71057;BME280;58380;48.312;9.246;2023-06-19T16:00:29;93400.75;;;22.35;70.29
71057;BME280;58380;48.312;9.246;2023-06-19T16:02:54;93431.09;;;22.60;69.68
71057;BME280;58380;48.312;9.246;2023-06-19T16:05:19;93418.97;;;22.17;69.11
71057;BME280;58380;48.312;9.246;2023-06-19T16:07:45;93451.56;;;22.16;70.47
71057;BME280;58380;48.312;9.246;2023-06-19T16:10:10;93440.34;;;21.89;72.59
71057;BME280;58380;48.312;9.246;2023-06-19T16:12:35;93443.00;;;21.77;73.98
71057;BME280;58380;48.312;9.246;2023-06-19T16:15:02;93415.06;;;21.57;75.73
71057;BME280;58380;48.312;9.246;2023-06-19T16:17:27;93441.66;;;21.83;76.24
71057;BME280;58380;48.312;9.246;2023-06-19T16:19:52;93426.22;;;21.80;75.22
71057;BME280;58380;48.312;9.246;2023-06-19T16:22:18;93455.66;;;21.89;75.57
71057;BME280;58380;48.312;9.246;2023-06-19T16:24:43;93420.81;;;21.68;76.38
71057;BME280;58380;48.312;9.246;2023-06-19T16:27:08;93443.91;;;21.93;76.67
71057;BME280;58380;48.312;9.246;2023-06-19T16:29:34;93417.72;;;21.90;76.61
71057;BME280;58380;48.312;9.246;2023-06-19T16:31:59;93435.09;;;22.17;75.76
71057;BME280;58380;48.312;9.246;2023-06-19T16:34:25;93422.47;;;22.30;75.59
71057;BME280;58380;48.312;9.246;2023-06-19T16:36:51;93423.09;;;22.76;74.47
71057;BME280;58380;48.312;9.246;2023-06-19T16:39:16;93428.44;;;23.13;72.20
71057;BME280;58380;48.312;9.246;2023-06-19T16:41:43;93427.91;;;23.36;70.32
71057;BME280;58380;48.312;9.246;2023-06-19T16:44:09;93351.41;;;22.96;69.43
71057;BME280;58380;48.312;9.246;2023-06-19T16:46:35;93442.22;;;23.52;68.89
71057;BME280;58380;48.312;9.246;2023-06-19T16:49:01;93409.84;;;23.36;69.70
71057;BME280;58380;48.312;9.246;2023-06-19T16:51:27;93427.09;;;23.47;70.01
71057;BME280;58380;48.312;9.246;2023-06-19T16:53:52;93428.31;;;23.50;69.20
71057;BME280;58380;48.312;9.246;2023-06-19T16:56:18;93420.06;;;23.31;70.28
71057;BME280;58380;48.312;9.246;2023-06-19T16:58:43;93434.09;;;23.36;68.66
71057;BME280;58380;48.312;9.246;2023-06-19T17:01:09;93418.53;;;23.30;68.61
71057;BME280;58380;48.312;9.246;2023-06-19T17:03:34;93366.44;;;23.10;67.66
71057;BME280;58380;48.312;9.246;2023-06-19T17:05:59;93388.53;;;23.31;67.47
71057;BME280;58380;48.312;9.246;2023-06-19T17:08:25;93411.66;;;23.60;65.80
71057;BME280;58380;48.312;9.246;2023-06-19T17:10:50;93375.72;;;23.40;65.51
71057;BME280;58380;48.312;9.246;2023-06-19T17:13:16;93410.75;;;23.56;64.21
71057;BME280;58380;48.312;9.246;2023-06-19T17:15:41;93402.59;;;23.53;65.46
71057;BME280;58380;48.312;9.246;2023-06-19T17:18:07;93374.03;;;23.36;66.23
71057;BME280;58380;48.312;9.246;2023-06-19T17:20:32;93421.66;;;23.60;65.15
71057;BME280;58380;48.312;9.246;2023-06-19T17:22:58;93408.75;;;23.53;65.58
71057;BME280;58380;48.312;9.246;2023-06-19T17:25:24;93414.50;;;23.52;65.73
71057;BME280;58380;48.312;9.246;2023-06-19T17:27:49;93411.19;;;23.42;65.89
71057;BME280;58380;48.312;9.246;2023-06-19T17:30:15;93430.59;;;23.36;66.60
71057;BME280;58380;48.312;9.246;2023-06-19T17:32:40;93415.44;;;23.15;66.60
71057;BME280;58380;48.312;9.246;2023-06-19T17:35:09;93416.59;;;23.02;67.31
71057;BME280;58380;48.312;9.246;2023-06-19T17:37:35;93409.22;;;22.87;68.55
71057;BME280;58380;48.312;9.246;2023-06-19T17:40:02;93424.22;;;22.88;69.71
71057;BME280;58380;48.312;9.246;2023-06-19T17:42:29;93382.34;;;22.62;71.00
71057;BME280;58380;48.312;9.246;2023-06-19T17:44:55;93403.28;;;22.69;71.16
71057;BME280;58380;48.312;9.246;2023-06-19T17:47:20;93405.41;;;22.63;71.74
71057;BME280;58380;48.312;9.246;2023-06-19T17:49:46;93399.38;;;22.54;72.62
71057;BME280;58380;48.312;9.246;2023-06-19T17:52:14;93421.69;;;22.67;72.95
71057;BME280;58380;48.312;9.246;2023-06-19T17:54:40;93404.44;;;22.55;73.03
71057;BME280;58380;48.312;9.246;2023-06-19T17:57:07;93428.94;;;22.66;73.07
71057;BME280;58380;48.312;9.246;2023-06-19T17:59:32;93427.84;;;22.67;73.50
71057;BME280;58380;48.312;9.246;2023-06-19T18:01:58;93423.81;;;22.61;73.90
71057;BME280;58380;48.312;9.246;2023-06-19T18:04:24;93430.66;;;22.58;74.16
71057;BME280;58380;48.312;9.246;2023-06-19T18:06:50;93415.75;;;22.36;74.91
71057;BME280;58380;48.312;9.246;2023-06-19T18:09:15;93421.25;;;22.28;75.09
71057;BME280;58380;48.312;9.246;2023-06-19T18:11:40;93438.63;;;22.30;74.88
71057;BME280;58380;48.312;9.246;2023-06-19T18:14:06;93423.72;;;22.21;75.78
71057;BME280;58380;48.312;9.246;2023-06-19T18:16:31;93437.06;;;22.29;75.58
71057;BME280;58380;48.312;9.246;2023-06-19T18:18:57;93437.28;;;22.24;76.66
71057;BME280;58380;48.312;9.246;2023-06-19T18:21:22;93441.75;;;22.20;76.02
71057;BME280;58380;48.312;9.246;2023-06-19T18:23:47;93381.31;;;21.81;75.96
71057;BME280;58380;48.312;9.246;2023-06-19T18:26:13;93429.50;;;22.10;76.95
71057;BME280;58380;48.312;9.246;2023-06-19T18:28:40;93412.34;;;21.90;76.30
71057;BME280;58380;48.312;9.246;2023-06-19T18:31:05;93435.31;;;22.00;76.83
71057;BME280;58380;48.312;9.246;2023-06-19T18:33:30;93435.31;;;22.00;76.90
71057;BME280;58380;48.312;9.246;2023-06-19T18:35:56;93414.00;;;21.83;77.07
71057;BME280;58380;48.312;9.246;2023-06-19T18:38:21;93425.75;;;21.78;77.47
71057;BME280;58380;48.312;9.246;2023-06-19T18:40:47;93412.50;;;21.61;78.87
71057;BME280;58380;48.312;9.246;2023-06-19T18:43:13;93437.59;;;21.65;79.79
71057;BME280;58380;48.312;9.246;2023-06-19T18:45:39;93424.53;;;21.42;81.60
71057;BME280;58380;48.312;9.246;2023-06-19T18:48:05;93448.75;;;21.54;82.79
71057;BME280;58380;48.312;9.246;2023-06-19T18:50:31;93448.59;;;21.51;84.71
71057;BME280;58380;48.312;9.246;2023-06-19T18:52:56;93442.22;;;21.43;87.87
71057;BME280;58380;48.312;9.246;2023-06-19T18:55:22;93427.16;;;21.30;87.25
71057;BME280;58380;48.312;9.246;2023-06-19T18:57:47;93445.81;;;21.47;91.84
71057;BME280;58380;48.312;9.246;2023-06-19T19:00:16;93412.72;;;21.35;93.07
71057;BME280;58380;48.312;9.246;2023-06-19T19:02:42;93412.38;;;21.36;91.23